Terminal Aerodrome Forecast
Issued by NWS Upton, NY

Home | Current Version | Previous Version | Text Only | Print | Product List | Glossary On
Versions: 1 2 3 4 5 6 7 8 9 10 11 12 13 14 15 16 17 18 19 20 21 22 23 24 25 26
000
FTUS41 KOKX 192000 AAB
TAFEWR
TAF AMD
KEWR 192040Z 1921/2024 16010KT P6SM SCT045 SCT070
     FM200300 13005KT P6SM SCT030
     FM200900 14004KT P6SM OVC025
     FM201500 17009KT P6SM BKN035
     FM201800 16010KT P6SM SCT040=

USA.gov is the U.S. government's official web portal to all federal, state and local government web resources and services.